Detroit, Michigan
Traffic Map
Current Weather Conditions
Detroit, Michigan
Overcast
Overcast
20°
Feels Like: 20°
Wind Chill: 20° Ceiling: 1200
Heat Index: 20° Visibility: 15mi
Dew Point: 17° Wind: 14mph
Humidity: 83% Direction: 340° (NNW)
Pressure: 29.98in Gusts: 0mph
Raw Report DataCYQG 231300Z 34012KT 15SM OVC012 20/17 A2998 RMK SC8 SLP149
Traffic Incident Summary
Active as of:
Severity:
Category:
InformationThere was an issue retrieving the traffic information for this location. Please try a different location or try again shortly.
Advertisements
Track Severe Weather on mobile